createdAt,value
2023-03-05T00:00:47.804Z,101740.94
2023-03-05T00:01:54.587Z,101736.63
2023-03-05T00:03:16.481Z,101736.63
2023-03-05T00:04:39.133Z,101734.91
2023-03-05T00:06:00.744Z,101735.81
2023-03-05T00:07:23.478Z,101728.81
2023-03-05T00:08:45.400Z,101727.91
2023-03-05T00:10:09.161Z,101722.72
2023-03-05T00:11:31.620Z,101726.19
2023-03-05T00:12:54.524Z,101729.78
2023-03-05T00:13:58.908Z,101722.63
2023-03-05T00:15:01.643Z,101726.19
2023-03-05T00:16:04.336Z,101723.63
2023-03-05T00:17:08.470Z,101730.63
2023-03-05T00:18:10.209Z,101716.59
2023-03-05T00:19:13.112Z,101726.13
2023-03-05T00:20:15.103Z,101716.50
2023-03-05T00:21:22.719Z,101720.00
2023-03-05T00:22:24.448Z,101717.34
2023-03-05T00:23:27.300Z,101727.03
2023-03-05T00:24:29.032Z,101722.63
2023-03-05T00:25:32.626Z,101720.84
2023-03-05T00:26:36.921Z,101722.63
2023-03-05T00:27:39.768Z,101725.28
2023-03-05T00:28:41.613Z,101720.91
2023-03-05T00:29:51.466Z,101718.38
2023-03-05T00:30:53.345Z,101719.28
2023-03-05T00:31:56.191Z,101721.06
2023-03-05T00:32:59.509Z,101721.16
2023-03-05T00:34:03.998Z,101722.00
2023-03-05T00:35:07.061Z,101722.94
2023-03-05T00:36:11.637Z,101714.16
2023-03-05T00:37:16.087Z,101714.97
2023-03-05T00:38:28.305Z,101715.03
2023-03-05T00:39:31.165Z,101712.38
2023-03-05T00:40:43.137Z,101708.91
2023-03-05T00:41:46.552Z,101714.09
2023-03-05T00:42:48.547Z,101709.69
2023-03-05T00:44:00.949Z,101710.47
2023-03-05T00:45:02.807Z,101706.97
2023-03-05T00:46:06.430Z,101705.25
2023-03-05T00:47:08.357Z,101703.56
2023-03-05T00:48:13.402Z,101706.09
2023-03-05T00:49:16.117Z,101700.94
2023-03-05T00:50:19.193Z,101699.97
2023-03-05T00:51:22.229Z,101704.34
2023-03-05T00:52:25.072Z,101701.69
2023-03-05T00:53:27.179Z,101697.19
2023-03-05T00:54:40.190Z,101699.81
2023-03-05T00:55:42.323Z,101696.38
2023-03-05T00:56:46.487Z,101703.41
2023-03-05T00:57:48.304Z,101705.19
2023-03-05T00:58:51.488Z,101703.41
2023-03-05T00:59:53.560Z,101693.78
2023-03-05T01:00:59.368Z,101696.41
2023-03-05T01:02:06.346Z,101694.69
2023-03-05T01:03:20.872Z,101699.16
2023-03-05T01:04:22.873Z,101698.34
2023-03-05T01:05:25.775Z,101697.50
2023-03-05T01:06:28.263Z,101688.72
2023-03-05T01:07:31.211Z,101695.88
2023-03-05T01:08:33.615Z,101692.47
2023-03-05T01:09:36.786Z,101689.88
2023-03-05T01:10:41.412Z,101693.44
2023-03-05T01:11:55.216Z,101692.53
2023-03-05T01:12:57.828Z,101687.34
2023-03-05T01:14:00.767Z,101685.53
2023-03-05T01:15:04.647Z,101685.63
2023-03-05T01:16:17.630Z,101688.31
2023-03-05T01:17:19.734Z,101684.00
2023-03-05T01:18:34.648Z,101684.06
2023-03-05T01:19:36.574Z,101683.19
2023-03-05T01:20:49.891Z,101671.78
2023-03-05T01:21:52.035Z,101678.78
2023-03-05T01:22:55.079Z,101677.91
2023-03-05T01:23:56.858Z,101677.91
2023-03-05T01:25:02.455Z,101677.06
2023-03-05T01:26:05.447Z,101673.50
2023-03-05T01:27:08.472Z,101671.72
2023-03-05T01:28:20.327Z,101665.53
2023-03-05T01:29:33.243Z,101673.50
2023-03-05T01:30:35.387Z,101665.69
2023-03-05T01:31:38.305Z,101663.13
2023-03-05T01:32:40.420Z,101664.91
2023-03-05T01:33:55.487Z,101663.22
2023-03-05T01:34:57.540Z,101663.13
2023-03-05T01:36:00.505Z,101663.13
2023-03-05T01:37:03.623Z,101657.84
2023-03-05T01:38:06.547Z,101660.44
2023-03-05T01:39:08.576Z,101655.16
2023-03-05T01:40:12.754Z,101655.97
2023-03-05T01:41:16.370Z,101659.47
2023-03-05T01:42:21.063Z,101653.44
2023-03-05T01:43:33.973Z,101656.06
2023-03-05T01:45:05.722Z,101647.47
2023-03-05T01:46:29.685Z,101654.50
2023-03-05T01:47:34.422Z,101649.31
2023-03-05T01:48:36.243Z,101651.00
2023-03-05T01:49:50.619Z,101651.88
2023-03-05T01:50:53.257Z,101650.09
2023-03-05T01:52:02.364Z,101643.97
2023-03-05T01:53:07.574Z,101650.84
2023-03-05T01:54:12.938Z,101648.16
2023-03-05T01:55:18.265Z,101637.63
2023-03-05T01:56:21.663Z,101637.63
2023-03-05T01:57:38.802Z,101640.16
2023-03-05T01:58:41.012Z,101641.03
2023-03-05T01:59:47.799Z,101637.47
2023-03-05T02:00:53.244Z,101638.34
2023-03-05T02:02:00.418Z,101633.94
2023-03-05T02:03:08.608Z,101632.22
2023-03-05T02:04:18.763Z,101634.84
2023-03-05T02:05:28.372Z,101634.84
2023-03-05T02:06:42.891Z,101634.91
2023-03-05T02:07:46.144Z,101637.63
2023-03-05T02:08:48.659Z,101635.91
2023-03-05T02:09:52.161Z,101633.28
2023-03-05T02:10:56.611Z,101620.97
2023-03-05T02:12:00.164Z,101622.75
2023-03-05T02:13:05.215Z,101622.75
2023-03-05T02:14:10.221Z,101618.41
2023-03-05T02:15:13.185Z,101622.97
2023-03-05T02:16:16.473Z,101613.34
2023-03-05T02:17:27.405Z,101622.19
2023-03-05T02:18:30.913Z,101620.50
2023-03-05T02:19:48.490Z,101610.00
2023-03-05T02:21:03.821Z,101617.16
2023-03-05T02:22:15.176Z,101615.44
2023-03-05T02:23:18.853Z,101611.09
2023-03-05T02:24:36.277Z,101608.44
2023-03-05T02:25:38.403Z,101605.03
2023-03-05T02:26:43.005Z,101608.59
2023-03-05T02:27:52.079Z,101609.56
2023-03-05T02:28:59.576Z,101608.69
2023-03-05T02:30:02.442Z,101606.13
2023-03-05T02:31:10.980Z,101599.06
2023-03-05T02:32:22.940Z,101598.22
2023-03-05T02:33:26.299Z,101596.50
2023-03-05T02:34:28.347Z,101603.47
2023-03-05T02:35:31.781Z,101591.09
2023-03-05T02:36:35.306Z,101591.94
2023-03-05T02:37:38.452Z,101591.88
2023-03-05T02:38:42.117Z,101585.69
2023-03-05T02:39:45.144Z,101582.09
2023-03-05T02:40:47.168Z,101584.75
2023-03-05T02:41:50.215Z,101587.38
2023-03-05T02:42:52.233Z,101582.09
2023-03-05T02:43:55.321Z,101587.38
2023-03-05T02:44:57.125Z,101588.22
2023-03-05T02:46:00.171Z,101582.09
2023-03-05T02:47:03.434Z,101582.97
2023-03-05T02:48:05.727Z,101588.22
2023-03-05T02:49:09.016Z,101588.16
2023-03-05T02:50:12.217Z,101584.75
2023-03-05T02:51:15.203Z,101581.25
2023-03-05T02:52:23.601Z,101583.88
2023-03-05T02:53:28.994Z,101579.56
2023-03-05T02:54:31.083Z,101583.13
2023-03-05T02:55:34.151Z,101577.00
2023-03-05T02:56:38.171Z,101580.56
2023-03-05T02:57:40.862Z,101577.94
2023-03-05T02:58:42.940Z,101577.13
2023-03-05T02:59:46.504Z,101570.16
2023-03-05T03:00:48.418Z,101568.38
2023-03-05T03:01:52.376Z,101565.75
2023-03-05T03:02:54.209Z,101571.88
2023-03-05T03:03:57.266Z,101573.59
2023-03-05T03:04:59.123Z,101563.06
2023-03-05T03:06:04.591Z,101570.03
2023-03-05T03:07:06.787Z,101562.97
2023-03-05T03:08:11.489Z,101566.44
2023-03-05T03:09:13.259Z,101560.16
2023-03-05T03:10:16.108Z,101558.50
2023-03-05T03:11:18.689Z,101560.16
2023-03-05T03:12:21.686Z,101561.13
2023-03-05T03:13:24.297Z,101555.91
2023-03-05T03:14:27.225Z,101560.41
2023-03-05T03:15:29.211Z,101556.94
2023-03-05T03:16:31.974Z,101553.44
2023-03-05T03:17:35.925Z,101546.38
2023-03-05T03:18:38.770Z,101547.31
2023-03-05T03:19:40.931Z,101543.81
2023-03-05T03:20:47.749Z,101548.25
2023-03-05T03:21:50.303Z,101542.13
2023-03-05T03:22:53.692Z,101548.31
2023-03-05T03:23:57.127Z,101540.41
2023-03-05T03:25:01.490Z,101550.09
2023-03-05T03:26:03.389Z,101541.34
2023-03-05T03:27:06.478Z,101540.56
2023-03-05T03:28:08.304Z,101542.28
2023-03-05T03:29:11.242Z,101540.56
2023-03-05T03:30:14.728Z,101543.19
2023-03-05T03:31:18.445Z,101540.56
2023-03-05T03:32:30.719Z,101540.56
2023-03-05T03:33:43.611Z,101537.06
2023-03-05T03:34:45.450Z,101538.84
2023-03-05T03:35:48.481Z,101537.16
2023-03-05T03:36:53.052Z,101536.22
2023-03-05T03:38:06.238Z,101530.94
2023-03-05T03:39:10.311Z,101530.19
2023-03-05T03:40:14.929Z,101538.00
2023-03-05T03:41:16.883Z,101528.47
2023-03-05T03:42:20.344Z,101533.75
2023-03-05T03:43:22.308Z,101528.47
2023-03-05T03:44:25.363Z,101526.78
2023-03-05T03:45:27.230Z,101525.84
2023-03-05T03:46:30.481Z,101526.78
2023-03-05T03:47:32.253Z,101526.84
2023-03-05T03:48:35.975Z,101524.22
2023-03-05T03:49:37.702Z,101520.72
2023-03-05T03:50:41.070Z,101519.88
2023-03-05T03:51:42.940Z,101519.00
2023-03-05T03:52:45.866Z,101519.00
2023-03-05T03:53:47.767Z,101520.81
2023-03-05T03:54:53.047Z,101511.25
2023-03-05T03:55:58.523Z,101512.97
2023-03-05T03:57:01.220Z,101518.25
2023-03-05T03:58:03.352Z,101512.22
2023-03-05T03:59:06.317Z,101513.97
2023-03-05T04:00:10.202Z,101508.63
2023-03-05T04:01:13.080Z,101509.41
2023-03-05T04:02:14.854Z,101505.06
2023-03-05T04:03:27.733Z,101505.84
2023-03-05T04:04:30.260Z,101505.94
2023-03-05T04:05:33.087Z,101505.84
2023-03-05T04:06:35.155Z,101503.28
2023-03-05T04:07:37.920Z,101499.97
2023-03-05T04:08:40.793Z,101498.19
2023-03-05T04:09:43.547Z,101499.91
2023-03-05T04:10:46.682Z,101498.94
2023-03-05T04:11:49.465Z,101503.28
2023-03-05T04:12:51.262Z,101490.03
2023-03-05T04:13:54.126Z,101498.72
2023-03-05T04:15:07.794Z,101493.47
2023-03-05T04:16:10.582Z,101492.53
2023-03-05T04:17:13.214Z,101496.88
2023-03-05T04:18:16.000Z,101493.31
2023-03-05T04:19:17.737Z,101499.44
2023-03-05T04:20:20.682Z,101495.03
2023-03-05T04:21:22.680Z,101495.03
2023-03-05T04:22:25.816Z,101493.31
2023-03-05T04:23:27.581Z,101492.53
2023-03-05T04:24:30.399Z,101489.91
2023-03-05T04:25:33.366Z,101496.00
2023-03-05T04:26:37.630Z,101493.47
2023-03-05T04:27:40.361Z,101489.13
2023-03-05T04:28:43.171Z,101485.72
2023-03-05T04:29:45.066Z,101490.13
2023-03-05T04:30:47.922Z,101484.00
2023-03-05T04:31:49.790Z,101485.78
2023-03-05T04:32:52.875Z,101483.09
2023-03-05T04:33:54.931Z,101477.81
2023-03-05T04:34:57.945Z,101476.19
2023-03-05T04:36:00.226Z,101471.69
2023-03-05T04:37:03.197Z,101471.69
2023-03-05T04:38:05.914Z,101475.25
2023-03-05T04:39:07.683Z,101469.06
2023-03-05T04:40:15.854Z,101467.44
2023-03-05T04:41:18.119Z,101473.47
2023-03-05T04:42:22.324Z,101469.13
2023-03-05T04:43:24.277Z,101471.00
2023-03-05T04:44:27.265Z,101466.66
2023-03-05T04:45:29.608Z,101471.16
2023-03-05T04:46:32.737Z,101465.94
2023-03-05T04:47:35.099Z,101464.16
2023-03-05T04:48:38.035Z,101465.13
2023-03-05T04:49:39.877Z,101469.44
2023-03-05T04:50:42.699Z,101473.00
2023-03-05T04:51:44.620Z,101470.38
2023-03-05T04:52:47.475Z,101459.06
2023-03-05T04:53:49.537Z,101465.19
2023-03-05T04:54:52.378Z,101463.47
2023-03-05T04:55:54.786Z,101463.47
2023-03-05T04:56:57.590Z,101470.44
2023-03-05T04:58:00.833Z,101461.78
2023-03-05T04:59:04.085Z,101457.28
2023-03-05T05:00:08.732Z,101459.91
2023-03-05T05:01:13.787Z,101451.00
2023-03-05T05:02:15.719Z,101457.06
2023-03-05T05:03:18.770Z,101457.06
2023-03-05T05:04:20.602Z,101457.88
2023-03-05T05:05:25.063Z,101457.81
2023-03-05T05:06:26.807Z,101453.31
2023-03-05T05:07:29.844Z,101454.19
2023-03-05T05:08:32.023Z,101455.03
2023-03-05T05:09:34.729Z,101449.78
2023-03-05T05:10:39.485Z,101448.91
2023-03-05T05:11:42.206Z,101447.06
2023-03-05T05:12:43.918Z,101448.75
2023-03-05T05:13:48.083Z,101445.25
2023-03-05T05:14:49.936Z,101448.84
2023-03-05T05:15:52.682Z,101444.44
2023-03-05T05:16:54.501Z,101441.88
2023-03-05T05:17:57.206Z,101443.66
2023-03-05T05:18:59.229Z,101439.34
2023-03-05T05:20:04.666Z,101441.09
2023-03-05T05:21:11.263Z,101433.97
2023-03-05T05:22:13.901Z,101428.72
2023-03-05T05:23:16.703Z,101426.06
2023-03-05T05:24:19.674Z,101422.59
2023-03-05T05:25:21.335Z,101415.63
2023-03-05T05:26:24.373Z,101417.31
2023-03-05T05:27:34.610Z,101417.25
2023-03-05T05:28:38.327Z,101414.53
2023-03-05T05:29:41.563Z,101411.88
2023-03-05T05:30:44.228Z,101415.38
2023-03-05T05:31:46.378Z,101418.00
2023-03-05T05:32:49.207Z,101413.53
2023-03-05T05:33:51.437Z,101415.31
2023-03-05T05:34:58.380Z,101416.19
2023-03-05T05:36:01.771Z,101416.19
2023-03-05T05:37:04.651Z,101419.72
2023-03-05T05:38:06.409Z,101422.44
2023-03-05T05:39:09.426Z,101426.78
2023-03-05T05:40:12.275Z,101428.53
2023-03-05T05:41:17.248Z,101425.91
2023-03-05T05:42:19.742Z,101434.72
2023-03-05T05:43:22.672Z,101433.06
2023-03-05T05:44:24.355Z,101427.00
2023-03-05T05:45:40.022Z,101431.50
2023-03-05T05:46:41.873Z,101429.88
2023-03-05T05:47:44.835Z,101429.09
2023-03-05T05:48:46.584Z,101429.16
2023-03-05T05:49:49.238Z,101432.72
2023-03-05T05:50:50.848Z,101432.72
2023-03-05T05:51:53.548Z,101431.88
2023-03-05T05:52:55.614Z,101422.19
2023-03-05T05:54:02.173Z,101424.75
2023-03-05T05:55:13.986Z,101431.81
2023-03-05T05:56:17.640Z,101427.41
2023-03-05T05:57:19.363Z,101428.31
2023-03-05T05:58:23.103Z,101423.09
2023-03-05T05:59:25.005Z,101424.06
2023-03-05T06:00:27.823Z,101424.91
2023-03-05T06:01:34.851Z,101422.28
2023-03-05T06:02:39.442Z,101416.16
2023-03-05T06:03:41.147Z,101422.34
2023-03-05T06:04:43.903Z,101423.22
2023-03-05T06:05:47.525Z,101422.34
2023-03-05T06:06:50.178Z,101418.00
2023-03-05T06:08:01.974Z,101419.72
2023-03-05T06:09:05.603Z,101420.47
2023-03-05T06:10:09.842Z,101422.19
2023-03-05T06:11:13.123Z,101417.78
2023-03-05T06:12:14.831Z,101428.31
2023-03-05T06:13:17.504Z,101420.41
2023-03-05T06:14:19.653Z,101421.34
2023-03-05T06:15:22.637Z,101418.78
2023-03-05T06:16:25.037Z,101424.06
2023-03-05T06:17:31.032Z,101413.59
2023-03-05T06:18:33.590Z,101418.94
2023-03-05T06:19:36.199Z,101414.53
2023-03-05T06:20:37.955Z,101418.94
2023-03-05T06:21:41.515Z,101414.59
2023-03-05T06:22:44.211Z,101415.47
2023-03-05T06:23:47.301Z,101413.69
2023-03-05T06:24:50.291Z,101416.22
2023-03-05T06:25:52.488Z,101415.38
2023-03-05T06:26:55.248Z,101418.78
2023-03-05T06:27:57.098Z,101418.78
2023-03-05T06:29:00.101Z,101416.16
2023-03-05T06:30:02.123Z,101416.22
2023-03-05T06:31:07.464Z,101419.72
2023-03-05T06:32:09.459Z,101413.53
2023-03-05T06:33:14.274Z,101413.53
2023-03-05T06:34:16.171Z,101416.94
2023-03-05T06:35:19.939Z,101420.47
2023-03-05T06:36:24.145Z,101422.19
2023-03-05T06:37:27.060Z,101408.25
2023-03-05T06:38:29.318Z,101411.81
2023-03-05T06:39:32.539Z,101415.38
2023-03-05T06:40:35.067Z,101408.41
2023-03-05T06:41:38.405Z,101408.41
2023-03-05T06:42:41.271Z,101413.69
2023-03-05T06:43:45.282Z,101413.69
2023-03-05T06:44:48.370Z,101413.59
2023-03-05T06:45:50.166Z,101420.63
2023-03-05T06:46:53.545Z,101413.59
2023-03-05T06:47:55.391Z,101420.47
2023-03-05T06:49:01.561Z,101411.81
2023-03-05T06:50:03.844Z,101413.38
2023-03-05T06:51:15.704Z,101417.72
2023-03-05T06:52:17.544Z,101408.88
2023-03-05T06:53:20.335Z,101420.19
2023-03-05T06:54:22.130Z,101413.06
2023-03-05T06:55:24.948Z,101413.22
2023-03-05T06:56:27.181Z,101408.66
2023-03-05T06:57:30.091Z,101410.28
2023-03-05T06:58:31.867Z,101417.16
2023-03-05T06:59:34.630Z,101412.75
2023-03-05T07:00:36.428Z,101413.59
2023-03-05T07:01:44.549Z,101409.19
2023-03-05T07:02:47.133Z,101414.47
2023-03-05T07:03:51.110Z,101406.56
2023-03-05T07:04:54.424Z,101413.59
2023-03-05T07:05:57.297Z,101406.56
2023-03-05T07:07:09.097Z,101405.69
2023-03-05T07:08:11.912Z,101409.94
2023-03-05T07:09:15.587Z,101407.25
2023-03-05T07:10:19.436Z,101405.47
2023-03-05T07:11:22.201Z,101408.88
2023-03-05T07:12:25.031Z,101402.69
2023-03-05T07:13:35.004Z,101405.31
2023-03-05T07:14:38.405Z,101405.31
2023-03-05T07:15:41.229Z,101401.84
2023-03-05T07:16:43.995Z,101396.63
2023-03-05T07:17:45.828Z,101400.13
2023-03-05T07:18:49.245Z,101398.34
2023-03-05T07:19:50.918Z,101404.47
2023-03-05T07:20:55.462Z,101406.19
2023-03-05T07:21:57.324Z,101403.44
2023-03-05T07:23:00.099Z,101404.31
2023-03-05T07:24:03.449Z,101406.84
2023-03-05T07:25:07.402Z,101401.56
2023-03-05T07:26:09.193Z,101404.16
2023-03-05T07:27:12.208Z,101402.38
2023-03-05T07:28:14.367Z,101405.00
2023-03-05T07:29:17.427Z,101404.16
2023-03-05T07:30:19.501Z,101403.28
2023-03-05T07:31:27.178Z,101394.47
2023-03-05T07:32:29.109Z,101401.44
2023-03-05T07:33:33.559Z,101398.81
2023-03-05T07:34:39.154Z,101402.13
2023-03-05T07:35:41.433Z,101396.94
2023-03-05T07:36:46.801Z,101396.03
2023-03-05T07:37:48.620Z,101396.94
2023-03-05T07:38:52.145Z,101396.94
2023-03-05T07:39:54.951Z,101390.75
2023-03-05T07:40:57.208Z,101392.44
2023-03-05T07:42:00.042Z,101394.91
2023-03-05T07:43:01.739Z,101393.13
2023-03-05T07:44:04.449Z,101390.44
2023-03-05T07:45:16.261Z,101395.53
2023-03-05T07:46:20.209Z,101391.13
2023-03-05T07:47:24.178Z,101386.63
2023-03-05T07:48:26.024Z,101388.22
2023-03-05T07:49:28.782Z,101394.28
2023-03-05T07:50:30.496Z,101392.47
2023-03-05T07:51:43.206Z,101388.06
2023-03-05T07:52:46.389Z,101388.06
2023-03-05T07:53:50.985Z,101385.38
2023-03-05T07:54:52.710Z,101388.06
2023-03-05T07:55:55.319Z,101381.81
2023-03-05T07:56:58.033Z,101379.25
2023-03-05T07:58:00.039Z,101388.06
2023-03-05T07:59:05.080Z,101386.38
2023-03-05T08:00:09.062Z,101381.13
2023-03-05T08:01:13.871Z,101381.13
2023-03-05T08:02:24.416Z,101374.03
2023-03-05T08:03:32.449Z,101376.66
2023-03-05T08:04:38.570Z,101372.41
2023-03-05T08:05:42.911Z,101380.41
2023-03-05T08:06:55.434Z,101374.28
2023-03-05T08:07:58.361Z,101379.56
2023-03-05T08:09:01.159Z,101372.59
2023-03-05T08:10:07.799Z,101376.84
2023-03-05T08:11:13.200Z,101375.84
2023-03-05T08:12:14.932Z,101377.53
2023-03-05T08:13:17.628Z,101373.22
2023-03-05T08:14:19.226Z,101373.22
2023-03-05T08:15:21.845Z,101372.25
2023-03-05T08:16:26.010Z,101368.69
2023-03-05T08:17:38.709Z,101372.09
2023-03-05T08:18:40.512Z,101375.50
2023-03-05T08:19:43.060Z,101381.53
2023-03-05T08:20:44.646Z,101371.78
2023-03-05T08:21:47.816Z,101367.34
2023-03-05T08:22:53.824Z,101366.34
2023-03-05T08:23:58.998Z,101359.22
2023-03-05T08:25:00.845Z,101366.19
2023-03-05T08:26:14.838Z,101366.19
2023-03-05T08:27:17.542Z,101365.22
2023-03-05T08:28:19.797Z,101360.81
2023-03-05T08:29:22.787Z,101358.13
2023-03-05T08:30:27.117Z,101357.16
2023-03-05T08:31:30.970Z,101360.59
2023-03-05T08:32:32.852Z,101357.84
2023-03-05T08:33:35.581Z,101352.56
2023-03-05T08:34:38.300Z,101350.91
2023-03-05T08:35:40.168Z,101355.31
2023-03-05T08:36:42.781Z,101352.69
2023-03-05T08:37:44.407Z,101350.03
2023-03-05T08:38:48.441Z,101351.75
2023-03-05T08:39:51.688Z,101348.00
2023-03-05T08:41:04.613Z,101350.47
2023-03-05T08:42:16.290Z,101351.06
2023-03-05T08:43:18.978Z,101342.25
2023-03-05T08:44:20.852Z,101343.75
2023-03-05T08:45:23.735Z,101347.19
2023-03-05T08:46:25.573Z,101347.19
2023-03-05T08:47:28.660Z,101343.56
2023-03-05T08:48:31.645Z,101338.25
2023-03-05T08:49:34.383Z,101341.72
2023-03-05T08:50:38.870Z,101345.97
2023-03-05T08:51:41.667Z,101336.28
2023-03-05T08:52:44.287Z,101337.03
2023-03-05T08:53:47.000Z,101337.81
2023-03-05T08:54:49.618Z,101341.22
2023-03-05T08:55:56.054Z,101336.69
2023-03-05T08:56:59.061Z,101334.91
2023-03-05T08:58:00.647Z,101332.19
2023-03-05T08:59:04.258Z,101335.59
2023-03-05T09:00:07.635Z,101336.28
2023-03-05T09:01:13.743Z,101335.34
2023-03-05T09:02:15.804Z,101338.06
2023-03-05T09:03:19.646Z,101334.50
2023-03-05T09:04:32.689Z,101337.03
2023-03-05T09:05:37.213Z,101323.00
2023-03-05T09:06:41.424Z,101331.75
2023-03-05T09:07:43.249Z,101329.97
2023-03-05T09:08:45.932Z,101322.00
2023-03-05T09:09:47.610Z,101326.41
2023-03-05T09:10:50.394Z,101332.59
2023-03-05T09:11:53.541Z,101326.56
2023-03-05T09:12:56.197Z,101324.88
2023-03-05T09:13:58.002Z,101331.94
2023-03-05T09:15:01.078Z,101326.66
2023-03-05T09:16:06.642Z,101323.34
2023-03-05T09:17:10.134Z,101330.31
2023-03-05T09:18:11.887Z,101325.16
2023-03-05T09:19:15.229Z,101320.78
2023-03-05T09:20:17.348Z,101319.94
2023-03-05T09:21:20.077Z,101330.50
2023-03-05T09:22:32.950Z,101313.81
2023-03-05T09:23:34.878Z,101318.22
2023-03-05T09:24:37.816Z,101313.91
2023-03-05T09:25:40.195Z,101311.28
2023-03-05T09:26:43.262Z,101315.53
2023-03-05T09:27:46.264Z,101315.41
2023-03-05T09:28:49.781Z,101312.63
2023-03-05T09:29:52.979Z,101311.59
2023-03-05T09:30:56.134Z,101312.28
2023-03-05T09:31:58.215Z,101302.59
2023-03-05T09:33:00.929Z,101312.97
2023-03-05T09:34:05.508Z,101304.94
2023-03-05T09:35:08.315Z,101303.75
2023-03-05T09:36:20.409Z,101294.66
2023-03-05T09:37:22.943Z,101304.16
2023-03-05T09:38:24.565Z,101298.03
2023-03-05T09:39:27.144Z,101304.16
2023-03-05T09:40:36.251Z,101300.66
2023-03-05T09:42:02.975Z,101300.66
2023-03-05T09:43:15.820Z,101302.28
2023-03-05T09:44:25.132Z,101302.03
2023-03-05T09:45:29.368Z,101292.22
2023-03-05T09:46:42.706Z,101297.31
2023-03-05T09:48:04.354Z,101301.50
2023-03-05T09:49:15.887Z,101301.31
2023-03-05T09:50:33.960Z,101293.22
2023-03-05T09:51:41.334Z,101294.72
2023-03-05T09:52:47.842Z,101297.97
2023-03-05T09:53:54.579Z,101292.69
2023-03-05T09:54:58.836Z,101294.53
2023-03-05T09:56:04.214Z,101294.38
2023-03-05T09:57:17.260Z,101297.00
2023-03-05T09:58:31.943Z,101300.75
2023-03-05T09:59:42.052Z,101296.50
2023-03-05T10:00:47.116Z,101301.97
2023-03-05T10:01:52.759Z,101288.97
2023-03-05T10:02:58.399Z,101290.75
2023-03-05T10:04:07.326Z,101287.25
2023-03-05T10:05:17.863Z,101294.34
2023-03-05T10:06:24.242Z,101291.72
2023-03-05T10:07:30.887Z,101291.72
2023-03-05T10:08:45.574Z,101285.66
2023-03-05T10:09:56.018Z,101282.25
2023-03-05T10:11:02.809Z,101285.66
2023-03-05T10:12:11.688Z,101287.34
2023-03-05T10:13:23.003Z,101283.78
2023-03-05T10:14:29.495Z,101276.63
2023-03-05T10:15:41.247Z,101280.88
2023-03-05T10:16:59.850Z,101285.88
2023-03-05T10:18:20.145Z,101283.06
2023-03-05T10:19:36.077Z,101282.88
2023-03-05T10:20:50.817Z,101270.44
2023-03-05T10:22:15.243Z,101282.69
2023-03-05T10:23:25.847Z,101278.44
2023-03-05T10:24:37.095Z,101275.69
2023-03-05T10:25:55.565Z,101278.28
2023-03-05T10:27:03.559Z,101275.38
2023-03-05T10:28:17.749Z,101275.22
2023-03-05T10:29:40.842Z,101266.25
2023-03-05T10:31:05.123Z,101262.66
2023-03-05T10:32:27.400Z,101267.66
2023-03-05T10:33:34.866Z,101259.47
2023-03-05T10:35:06.156Z,101259.38
2023-03-05T10:36:41.519Z,101253.03
2023-03-05T10:38:22.653Z,101254.88
2023-03-05T10:40:00.769Z,101262.00
2023-03-05T10:41:13.387Z,101250.59
2023-03-05T10:42:24.021Z,101252.28
2023-03-05T10:43:36.955Z,101254.00
2023-03-05T10:44:44.446Z,101246.16
2023-03-05T10:45:51.000Z,101247.88
2023-03-05T10:46:58.248Z,101242.59
2023-03-05T10:48:07.390Z,101245.97
2023-03-05T10:49:19.106Z,101243.25
2023-03-05T10:50:24.217Z,101240.31
2023-03-05T10:51:35.318Z,101239.19
2023-03-05T10:52:40.564Z,101238.91
2023-03-05T10:53:52.989Z,101240.31
2023-03-05T10:54:54.677Z,101239.19
2023-03-05T10:55:57.509Z,101234.47
2023-03-05T10:57:04.128Z,101226.34
2023-03-05T10:58:12.447Z,101230.50
2023-03-05T10:59:17.373Z,101228.63
2023-03-05T11:00:23.875Z,101235.50
2023-03-05T11:01:30.784Z,101233.72
2023-03-05T11:02:34.013Z,101233.78
2023-03-05T11:03:52.543Z,101226.72
2023-03-05T11:04:55.630Z,101228.22
2023-03-05T11:06:00.395Z,101230.69
2023-03-05T11:07:08.553Z,101226.97
2023-03-05T11:08:25.170Z,101222.56
2023-03-05T11:09:29.188Z,101229.63
2023-03-05T11:10:30.733Z,101215.66
2023-03-05T11:11:33.301Z,101226.13
2023-03-05T11:12:36.236Z,101223.59
2023-03-05T11:13:47.211Z,101217.53
2023-03-05T11:15:06.293Z,101224.72
2023-03-05T11:16:18.822Z,101213.31
2023-03-05T11:17:32.301Z,101215.00
2023-03-05T11:18:34.658Z,101211.41
2023-03-05T11:19:39.724Z,101211.41
2023-03-05T11:20:50.469Z,101204.44
2023-03-05T11:22:08.233Z,101209.94
2023-03-05T11:23:13.120Z,101200.47
2023-03-05T11:24:18.952Z,101208.59
2023-03-05T11:25:22.552Z,101203.53
2023-03-05T11:26:25.090Z,101202.00
2023-03-05T11:27:36.025Z,101200.31
2023-03-05T11:28:40.879Z,101201.25
2023-03-05T11:29:49.047Z,101200.50
2023-03-05T11:30:58.210Z,101197.97
2023-03-05T11:32:17.348Z,101192.88
2023-03-05T11:33:22.600Z,101196.66
2023-03-05T11:34:35.103Z,101190.69
2023-03-05T11:35:38.711Z,101188.13
2023-03-05T11:36:43.413Z,101191.81
2023-03-05T11:38:00.388Z,101189.38
2023-03-05T11:39:12.283Z,101191.28
2023-03-05T11:40:20.893Z,101186.00
2023-03-05T11:41:38.171Z,101186.00
2023-03-05T11:42:40.910Z,101188.53
2023-03-05T11:43:44.803Z,101190.13
2023-03-05T11:44:49.884Z,101189.84
2023-03-05T11:45:55.391Z,101190.31
2023-03-05T11:47:02.495Z,101177.66
2023-03-05T11:48:13.225Z,101184.44
2023-03-05T11:49:21.703Z,101183.22
2023-03-05T11:50:32.632Z,101180.41
2023-03-05T11:51:42.599Z,101185.56
2023-03-05T11:52:47.037Z,101191.03
2023-03-05T11:53:52.947Z,101175.59
2023-03-05T11:55:02.365Z,101183.59
2023-03-05T11:56:14.363Z,101170.50
2023-03-05T11:57:19.096Z,101179.94
2023-03-05T11:58:29.470Z,101177.84
2023-03-05T11:59:36.515Z,101180.19
2023-03-05T12:00:41.579Z,101176.69
2023-03-05T12:01:47.887Z,101172.16
2023-03-05T12:02:54.550Z,101166.00
2023-03-05T12:03:59.940Z,101165.94
2023-03-05T12:05:03.259Z,101166.66
2023-03-05T12:06:14.942Z,101171.94
2023-03-05T12:07:22.628Z,101164.88
2023-03-05T12:08:30.475Z,101163.09
2023-03-05T12:09:42.233Z,101161.97
2023-03-05T12:10:44.357Z,101155.69
2023-03-05T12:11:49.588Z,101162.59
2023-03-05T12:13:00.781Z,101154.69
2023-03-05T12:14:11.078Z,101147.78
2023-03-05T12:15:46.356Z,101148.94
2023-03-05T12:16:55.958Z,101145.00
2023-03-05T12:18:06.601Z,101136.50
2023-03-05T12:19:34.441Z,101146.41
2023-03-05T12:20:46.594Z,101142.16
2023-03-05T12:21:51.300Z,101134.34
2023-03-05T12:22:52.863Z,101135.28
2023-03-05T12:24:01.235Z,101131.78
2023-03-05T12:25:25.191Z,101127.38
2023-03-05T12:26:59.251Z,101128.22
2023-03-05T12:28:02.786Z,101126.50
2023-03-05T12:29:04.393Z,101123.88
2023-03-05T12:30:29.457Z,101118.59